Gafsa, Tunisia
Current Conditions -  °F | °C
As of 1:00 PM on Friday 19 Dec 2014 (Local Time) from DTTF Reporting Station
Scattered Clouds Scattered Clouds  
Wind Chill: 61°   Ceiling: Unl
Heat Index: 61°   Visibility: 6mi
Dew Point: 46°   Wind: 7mph
Humidity: 59%   Direction: 70°ENE
Pressure: 30.3"   Gusts: NA
Location:  34.42°N, 8.79°E
Report Text: DTTF 191200Z 07006KT 020V110 9999 SCT026 16/08 Q1026 NOSIG
Loading
Personal Weather Stations






























Interactive Weather Map New forecast layout! Learn more

10-Day Weather Forecast

Advertisements
Track Severe Weather on mobile